sensor_id;sensor_type;location;lat;lon;timestamp;P1;durP1;ratioP1;P2;durP2;ratioP2
22826;SDS011;11580;52.562;13.418;2023-02-01T00:01:32;7.57;;;3.03;;
22826;SDS011;11580;52.562;13.418;2023-02-01T00:03:59;4.03;;;2.87;;
22826;SDS011;11580;52.562;13.418;2023-02-01T00:06:26;7.80;;;3.10;;
22826;SDS011;11580;52.562;13.418;2023-02-01T00:08:54;8.80;;;3.23;;
22826;SDS011;11580;52.562;13.418;2023-02-01T00:11:21;6.37;;;3.20;;
22826;SDS011;11580;52.562;13.418;2023-02-01T00:13:50;4.93;;;3.07;;
22826;SDS011;11580;52.562;13.418;2023-02-01T00:16:20;6.97;;;2.80;;
22826;SDS011;11580;52.562;13.418;2023-02-01T00:18:49;9.53;;;2.90;;
22826;SDS011;11580;52.562;13.418;2023-02-01T00:21:21;8.07;;;2.87;;
22826;SDS011;11580;52.562;13.418;2023-02-01T00:23:49;7.20;;;2.47;;
22826;SDS011;11580;52.562;13.418;2023-02-01T00:26:16;6.40;;;2.97;;
22826;SDS011;11580;52.562;13.418;2023-02-01T00:28:51;5.20;;;2.80;;
22826;SDS011;11580;52.562;13.418;2023-02-01T00:31:19;5.00;;;3.60;;
22826;SDS011;11580;52.562;13.418;2023-02-01T00:33:47;7.43;;;2.60;;
22826;SDS011;11580;52.562;13.418;2023-02-01T00:36:15;4.63;;;2.53;;
22826;SDS011;11580;52.562;13.418;2023-02-01T00:38:43;7.23;;;2.80;;
22826;SDS011;11580;52.562;13.418;2023-02-01T00:41:11;6.40;;;3.43;;
22826;SDS011;11580;52.562;13.418;2023-02-01T00:43:41;7.97;;;2.93;;
22826;SDS011;11580;52.562;13.418;2023-02-01T00:46:10;6.83;;;3.50;;
22826;SDS011;11580;52.562;13.418;2023-02-01T00:48:41;5.73;;;2.43;;
22826;SDS011;11580;52.562;13.418;2023-02-01T00:51:09;7.70;;;3.00;;
22826;SDS011;11580;52.562;13.418;2023-02-01T00:53:39;6.43;;;2.30;;
22826;SDS011;11580;52.562;13.418;2023-02-01T00:56:07;4.60;;;2.43;;
22826;SDS011;11580;52.562;13.418;2023-02-01T00:58:35;11.20;;;2.87;;
22826;SDS011;11580;52.562;13.418;2023-02-01T01:01:03;6.77;;;2.40;;
22826;SDS011;11580;52.562;13.418;2023-02-01T01:03:34;7.60;;;2.40;;
22826;SDS011;11580;52.562;13.418;2023-02-01T01:06:06;5.53;;;2.03;;
22826;SDS011;11580;52.562;13.418;2023-02-01T01:08:37;2.53;;;1.43;;
22826;SDS011;11580;52.562;13.418;2023-02-01T01:11:05;3.67;;;2.67;;
22826;SDS011;11580;52.562;13.418;2023-02-01T01:13:34;6.23;;;2.13;;
22826;SDS011;11580;52.562;13.418;2023-02-01T01:16:02;4.30;;;2.40;;
22826;SDS011;11580;52.562;13.418;2023-02-01T01:18:33;4.13;;;1.77;;
22826;SDS011;11580;52.562;13.418;2023-02-01T01:21:01;5.17;;;1.93;;
22826;SDS011;11580;52.562;13.418;2023-02-01T01:23:32;5.23;;;2.37;;
22826;SDS011;11580;52.562;13.418;2023-02-01T01:26:00;6.53;;;2.37;;
22826;SDS011;11580;52.562;13.418;2023-02-01T01:28:27;9.43;;;2.57;;
22826;SDS011;11580;52.562;13.418;2023-02-01T01:30:54;6.43;;;2.50;;
22826;SDS011;11580;52.562;13.418;2023-02-01T01:33:21;3.60;;;2.33;;
22826;SDS011;11580;52.562;13.418;2023-02-01T01:35:48;7.57;;;3.70;;
22826;SDS011;11580;52.562;13.418;2023-02-01T01:38:16;5.23;;;2.80;;
22826;SDS011;11580;52.562;13.418;2023-02-01T01:40:46;6.43;;;2.63;;
22826;SDS011;11580;52.562;13.418;2023-02-01T01:43:16;10.43;;;3.20;;
22826;SDS011;11580;52.562;13.418;2023-02-01T01:45:47;6.60;;;3.17;;
22826;SDS011;11580;52.562;13.418;2023-02-01T01:48:18;7.70;;;2.90;;
22826;SDS011;11580;52.562;13.418;2023-02-01T01:50:54;11.43;;;3.40;;
22826;SDS011;11580;52.562;13.418;2023-02-01T01:53:28;8.03;;;3.30;;
22826;SDS011;11580;52.562;13.418;2023-02-01T01:56:06;8.40;;;3.17;;
22826;SDS011;11580;52.562;13.418;2023-02-01T01:58:33;9.50;;;3.77;;
22826;SDS011;11580;52.562;13.418;2023-02-01T02:01:01;4.40;;;3.10;;
22826;SDS011;11580;52.562;13.418;2023-02-01T02:03:30;5.83;;;3.03;;
22826;SDS011;11580;52.562;13.418;2023-02-01T02:06:04;5.60;;;2.80;;
22826;SDS011;11580;52.562;13.418;2023-02-01T02:08:40;11.07;;;3.17;;
22826;SDS011;11580;52.562;13.418;2023-02-01T02:11:09;11.00;;;3.70;;
22826;SDS011;11580;52.562;13.418;2023-02-01T02:13:41;6.60;;;3.10;;
22826;SDS011;11580;52.562;13.418;2023-02-01T02:16:19;5.53;;;3.17;;
22826;SDS011;11580;52.562;13.418;2023-02-01T02:19:05;7.60;;;3.20;;
22826;SDS011;11580;52.562;13.418;2023-02-01T02:22:16;8.43;;;4.23;;
22826;SDS011;11580;52.562;13.418;2023-02-01T02:28:51;6.23;;;3.00;;
22826;SDS011;11580;52.562;13.418;2023-02-01T02:31:56;6.53;;;2.90;;
22826;SDS011;11580;52.562;13.418;2023-02-01T02:34:46;8.80;;;3.53;;
22826;SDS011;11580;52.562;13.418;2023-02-01T02:37:25;5.87;;;2.60;;
22826;SDS011;11580;52.562;13.418;2023-02-01T02:40:05;9.63;;;3.40;;
22826;SDS011;11580;52.562;13.418;2023-02-01T02:42:43;7.33;;;2.97;;
22826;SDS011;11580;52.562;13.418;2023-02-01T02:45:42;10.97;;;3.90;;
22826;SDS011;11580;52.562;13.418;2023-02-01T02:48:36;8.10;;;4.60;;
22826;SDS011;11580;52.562;13.418;2023-02-01T02:51:13;9.73;;;4.10;;
22826;SDS011;11580;52.562;13.418;2023-02-01T02:54:09;5.20;;;3.27;;
22826;SDS011;11580;52.562;13.418;2023-02-01T02:56:58;14.50;;;4.70;;
22826;SDS011;11580;52.562;13.418;2023-02-01T02:59:49;9.03;;;3.50;;
22826;SDS011;11580;52.562;13.418;2023-02-01T03:02:36;7.60;;;3.27;;
22826;SDS011;11580;52.562;13.418;2023-02-01T03:05:22;5.50;;;2.83;;
22826;SDS011;11580;52.562;13.418;2023-02-01T03:07:57;12.57;;;4.30;;
22826;SDS011;11580;52.562;13.418;2023-02-01T03:10:40;7.60;;;3.43;;
22826;SDS011;11580;52.562;13.418;2023-02-01T03:13:19;7.73;;;3.53;;
22826;SDS011;11580;52.562;13.418;2023-02-01T03:15:57;7.40;;;4.00;;
22826;SDS011;11580;52.562;13.418;2023-02-01T03:18:32;10.60;;;6.23;;
22826;SDS011;11580;52.562;13.418;2023-02-01T03:21:08;6.77;;;3.20;;
22826;SDS011;11580;52.562;13.418;2023-02-01T03:23:43;13.00;;;4.07;;
22826;SDS011;11580;52.562;13.418;2023-02-01T03:26:13;8.80;;;4.20;;
22826;SDS011;11580;52.562;13.418;2023-02-01T03:28:48;6.20;;;3.03;;
22826;SDS011;11580;52.562;13.418;2023-02-01T03:31:22;7.13;;;4.53;;
22826;SDS011;11580;52.562;13.418;2023-02-01T03:33:50;8.83;;;3.87;;
22826;SDS011;11580;52.562;13.418;2023-02-01T03:36:20;11.20;;;4.40;;
22826;SDS011;11580;52.562;13.418;2023-02-01T03:38:58;7.70;;;3.87;;
22826;SDS011;11580;52.562;13.418;2023-02-01T03:41:34;5.10;;;3.43;;
22826;SDS011;11580;52.562;13.418;2023-02-01T03:44:10;9.10;;;3.97;;
22826;SDS011;11580;52.562;13.418;2023-02-01T03:46:42;10.43;;;4.53;;
22826;SDS011;11580;52.562;13.418;2023-02-01T03:49:18;9.50;;;3.50;;
22826;SDS011;11580;52.562;13.418;2023-02-01T03:51:53;7.20;;;3.20;;
22826;SDS011;11580;52.562;13.418;2023-02-01T03:54:25;6.67;;;3.17;;
22826;SDS011;11580;52.562;13.418;2023-02-01T03:56:55;11.43;;;3.17;;
22826;SDS011;11580;52.562;13.418;2023-02-01T03:59:28;9.33;;;3.63;;
22826;SDS011;11580;52.562;13.418;2023-02-01T04:01:56;8.50;;;3.13;;
22826;SDS011;11580;52.562;13.418;2023-02-01T04:04:23;6.20;;;4.00;;
22826;SDS011;11580;52.562;13.418;2023-02-01T04:06:52;10.83;;;4.70;;
22826;SDS011;11580;52.562;13.418;2023-02-01T04:09:20;9.60;;;4.03;;
22826;SDS011;11580;52.562;13.418;2023-02-01T04:11:48;5.43;;;3.03;;
22826;SDS011;11580;52.562;13.418;2023-02-01T04:14:16;11.63;;;4.10;;
22826;SDS011;11580;52.562;13.418;2023-02-01T04:16:43;9.00;;;4.10;;
22826;SDS011;11580;52.562;13.418;2023-02-01T04:19:10;11.93;;;5.53;;
22826;SDS011;11580;52.562;13.418;2023-02-01T04:21:38;7.80;;;3.50;;
22826;SDS011;11580;52.562;13.418;2023-02-01T04:24:05;9.97;;;4.63;;
22826;SDS011;11580;52.562;13.418;2023-02-01T04:26:33;8.70;;;3.73;;
22826;SDS011;11580;52.562;13.418;2023-02-01T04:29:02;11.63;;;4.50;;
22826;SDS011;11580;52.562;13.418;2023-02-01T04:31:29;15.83;;;4.80;;
22826;SDS011;11580;52.562;13.418;2023-02-01T04:33:56;9.53;;;3.30;;
22826;SDS011;11580;52.562;13.418;2023-02-01T04:36:23;8.10;;;4.13;;
22826;SDS011;11580;52.562;13.418;2023-02-01T04:38:51;7.47;;;4.40;;
22826;SDS011;11580;52.562;13.418;2023-02-01T04:41:18;9.17;;;4.10;;
22826;SDS011;11580;52.562;13.418;2023-02-01T04:43:48;6.67;;;3.50;;
22826;SDS011;11580;52.562;13.418;2023-02-01T04:46:18;11.33;;;3.80;;
22826;SDS011;11580;52.562;13.418;2023-02-01T04:48:45;11.03;;;4.20;;
22826;SDS011;11580;52.562;13.418;2023-02-01T04:51:13;7.87;;;3.70;;
22826;SDS011;11580;52.562;13.418;2023-02-01T04:53:41;13.33;;;3.77;;
22826;SDS011;11580;52.562;13.418;2023-02-01T04:56:08;7.17;;;3.37;;
22826;SDS011;11580;52.562;13.418;2023-02-01T04:58:35;15.57;;;4.77;;
22826;SDS011;11580;52.562;13.418;2023-02-01T05:01:03;7.50;;;3.83;;
22826;SDS011;11580;52.562;13.418;2023-02-01T05:03:32;10.40;;;4.23;;
22826;SDS011;11580;52.562;13.418;2023-02-01T05:06:00;9.20;;;3.90;;
22826;SDS011;11580;52.562;13.418;2023-02-01T05:08:29;7.47;;;3.70;;
22826;SDS011;11580;52.562;13.418;2023-02-01T05:10:56;10.33;;;3.57;;
22826;SDS011;11580;52.562;13.418;2023-02-01T05:13:24;11.87;;;4.10;;
22826;SDS011;11580;52.562;13.418;2023-02-01T05:16:08;9.00;;;4.27;;
22826;SDS011;11580;52.562;13.418;2023-02-01T05:18:37;8.80;;;4.07;;
22826;SDS011;11580;52.562;13.418;2023-02-01T05:21:04;10.20;;;4.77;;
22826;SDS011;11580;52.562;13.418;2023-02-01T05:23:31;7.63;;;4.43;;
22826;SDS011;11580;52.562;13.418;2023-02-01T05:26:19;9.67;;;4.57;;
22826;SDS011;11580;52.562;13.418;2023-02-01T05:28:46;8.90;;;4.13;;
22826;SDS011;11580;52.562;13.418;2023-02-01T05:31:13;12.73;;;5.43;;
22826;SDS011;11580;52.562;13.418;2023-02-01T05:33:41;8.70;;;4.60;;
22826;SDS011;11580;52.562;13.418;2023-02-01T05:36:09;10.17;;;4.60;;
22826;SDS011;11580;52.562;13.418;2023-02-01T05:38:36;9.97;;;4.07;;
22826;SDS011;11580;52.562;13.418;2023-02-01T05:41:03;9.83;;;4.20;;
22826;SDS011;11580;52.562;13.418;2023-02-01T05:43:30;10.83;;;3.87;;
22826;SDS011;11580;52.562;13.418;2023-02-01T05:45:58;9.77;;;3.57;;
22826;SDS011;11580;52.562;13.418;2023-02-01T05:48:25;9.43;;;4.77;;
22826;SDS011;11580;52.562;13.418;2023-02-01T05:50:54;8.90;;;3.77;;
22826;SDS011;11580;52.562;13.418;2023-02-01T05:53:21;7.87;;;3.83;;
22826;SDS011;11580;52.562;13.418;2023-02-01T05:55:48;8.60;;;4.13;;
22826;SDS011;11580;52.562;13.418;2023-02-01T05:58:15;8.20;;;4.40;;
22826;SDS011;11580;52.562;13.418;2023-02-01T06:00:42;11.50;;;3.77;;
22826;SDS011;11580;52.562;13.418;2023-02-01T06:03:10;10.03;;;3.80;;
22826;SDS011;11580;52.562;13.418;2023-02-01T06:05:37;9.70;;;4.57;;
22826;SDS011;11580;52.562;13.418;2023-02-01T06:08:05;10.73;;;4.17;;
22826;SDS011;11580;52.562;13.418;2023-02-01T06:10:34;14.23;;;4.60;;
22826;SDS011;11580;52.562;13.418;2023-02-01T06:13:01;11.27;;;4.03;;
22826;SDS011;11580;52.562;13.418;2023-02-01T06:15:28;5.93;;;3.83;;
22826;SDS011;11580;52.562;13.418;2023-02-01T06:17:56;9.37;;;3.97;;
22826;SDS011;11580;52.562;13.418;2023-02-01T06:20:23;7.30;;;4.30;;
22826;SDS011;11580;52.562;13.418;2023-02-01T06:22:51;6.80;;;3.93;;
22826;SDS011;11580;52.562;13.418;2023-02-01T06:25:20;8.50;;;4.23;;
22826;SDS011;11580;52.562;13.418;2023-02-01T06:27:47;9.80;;;4.20;;
22826;SDS011;11580;52.562;13.418;2023-02-01T06:30:14;13.63;;;5.40;;
22826;SDS011;11580;52.562;13.418;2023-02-01T06:32:43;5.27;;;3.23;;
22826;SDS011;11580;52.562;13.418;2023-02-01T06:35:18;12.53;;;4.63;;
22826;SDS011;11580;52.562;13.418;2023-02-01T06:37:46;9.67;;;4.20;;
22826;SDS011;11580;52.562;13.418;2023-02-01T06:40:13;8.57;;;5.00;;
22826;SDS011;11580;52.562;13.418;2023-02-01T06:42:42;6.03;;;3.53;;
22826;SDS011;11580;52.562;13.418;2023-02-01T06:45:09;10.03;;;4.13;;
22826;SDS011;11580;52.562;13.418;2023-02-01T06:47:37;7.30;;;4.40;;
22826;SDS011;11580;52.562;13.418;2023-02-01T06:50:04;8.30;;;3.33;;
22826;SDS011;11580;52.562;13.418;2023-02-01T06:52:32;11.13;;;4.63;;
22826;SDS011;11580;52.562;13.418;2023-02-01T06:55:00;7.80;;;5.03;;
22826;SDS011;11580;52.562;13.418;2023-02-01T06:57:27;7.70;;;4.37;;
22826;SDS011;11580;52.562;13.418;2023-02-01T06:59:57;9.07;;;3.70;;
22826;SDS011;11580;52.562;13.418;2023-02-01T07:02:24;6.67;;;3.50;;
22826;SDS011;11580;52.562;13.418;2023-02-01T07:04:51;6.93;;;3.93;;
22826;SDS011;11580;52.562;13.418;2023-02-01T07:07:18;8.23;;;4.37;;
22826;SDS011;11580;52.562;13.418;2023-02-01T07:09:49;8.30;;;4.67;;
22826;SDS011;11580;52.562;13.418;2023-02-01T07:12:16;11.37;;;4.30;;
22826;SDS011;11580;52.562;13.418;2023-02-01T07:14:45;7.83;;;4.10;;
22826;SDS011;11580;52.562;13.418;2023-02-01T07:17:13;5.53;;;3.60;;
22826;SDS011;11580;52.562;13.418;2023-02-01T07:19:40;7.00;;;3.60;;
22826;SDS011;11580;52.562;13.418;2023-02-01T07:22:07;8.80;;;3.57;;
22826;SDS011;11580;52.562;13.418;2023-02-01T07:24:35;5.77;;;3.70;;
22826;SDS011;11580;52.562;13.418;2023-02-01T07:27:02;9.13;;;4.03;;
22826;SDS011;11580;52.562;13.418;2023-02-01T07:29:29;9.37;;;5.13;;
22826;SDS011;11580;52.562;13.418;2023-02-01T07:31:56;7.10;;;3.90;;
22826;SDS011;11580;52.562;13.418;2023-02-01T07:34:26;5.87;;;3.87;;
22826;SDS011;11580;52.562;13.418;2023-02-01T07:36:54;6.37;;;3.70;;
22826;SDS011;11580;52.562;13.418;2023-02-01T07:39:21;9.03;;;3.60;;
22826;SDS011;11580;52.562;13.418;2023-02-01T07:41:48;8.37;;;4.00;;
22826;SDS011;11580;52.562;13.418;2023-02-01T07:44:16;8.47;;;4.27;;
22826;SDS011;11580;52.562;13.418;2023-02-01T07:46:47;6.70;;;3.73;;
22826;SDS011;11580;52.562;13.418;2023-02-01T07:49:15;6.97;;;3.33;;
22826;SDS011;11580;52.562;13.418;2023-02-01T07:51:43;5.13;;;3.43;;
22826;SDS011;11580;52.562;13.418;2023-02-01T07:54:11;6.37;;;3.80;;
22826;SDS011;11580;52.562;13.418;2023-02-01T07:56:38;6.77;;;3.90;;
22826;SDS011;11580;52.562;13.418;2023-02-01T07:59:05;6.50;;;4.47;;
22826;SDS011;11580;52.562;13.418;2023-02-01T08:01:33;6.90;;;3.13;;
22826;SDS011;11580;52.562;13.418;2023-02-01T08:04:01;8.70;;;4.47;;
22826;SDS011;11580;52.562;13.418;2023-02-01T08:06:30;6.83;;;3.60;;
22826;SDS011;11580;52.562;13.418;2023-02-01T08:09:02;4.00;;;2.77;;
22826;SDS011;11580;52.562;13.418;2023-02-01T08:11:30;5.70;;;3.13;;
22826;SDS011;11580;52.562;13.418;2023-02-01T08:13:58;4.43;;;3.73;;
22826;SDS011;11580;52.562;13.418;2023-02-01T08:16:25;4.80;;;2.60;;
22826;SDS011;11580;52.562;13.418;2023-02-01T08:18:52;4.10;;;3.70;;
22826;SDS011;11580;52.562;13.418;2023-02-01T08:21:21;4.93;;;3.17;;
22826;SDS011;11580;52.562;13.418;2023-02-01T08:23:50;5.03;;;3.60;;
22826;SDS011;11580;52.562;13.418;2023-02-01T08:26:20;4.40;;;3.40;;
22826;SDS011;11580;52.562;13.418;2023-02-01T08:28:51;4.63;;;4.30;;
22826;SDS011;11580;52.562;13.418;2023-02-01T08:31:21;5.43;;;2.93;;
22826;SDS011;11580;52.562;13.418;2023-02-01T08:33:51;8.90;;;3.63;;
22826;SDS011;11580;52.562;13.418;2023-02-01T08:36:22;4.20;;;2.37;;
22826;SDS011;11580;52.562;13.418;2023-02-01T08:38:51;6.37;;;3.00;;
22826;SDS011;11580;52.562;13.418;2023-02-01T08:41:21;4.10;;;2.80;;
22826;SDS011;11580;52.562;13.418;2023-02-01T08:43:50;3.07;;;2.77;;
22826;SDS011;11580;52.562;13.418;2023-02-01T08:46:19;6.07;;;3.43;;
22826;SDS011;11580;52.562;13.418;2023-02-01T08:48:47;4.30;;;2.50;;
22826;SDS011;11580;52.562;13.418;2023-02-01T08:51:15;5.63;;;3.00;;
22826;SDS011;11580;52.562;13.418;2023-02-01T08:53:45;4.83;;;2.80;;
22826;SDS011;11580;52.562;13.418;2023-02-01T08:56:15;5.03;;;2.90;;
22826;SDS011;11580;52.562;13.418;2023-02-01T08:58:44;3.90;;;3.00;;
22826;SDS011;11580;52.562;13.418;2023-02-01T09:01:12;3.63;;;3.13;;
22826;SDS011;11580;52.562;13.418;2023-02-01T09:03:41;5.17;;;2.87;;
22826;SDS011;11580;52.562;13.418;2023-02-01T09:06:09;3.73;;;2.50;;
22826;SDS011;11580;52.562;13.418;2023-02-01T09:08:40;5.00;;;2.77;;
22826;SDS011;11580;52.562;13.418;2023-02-01T09:11:08;3.37;;;2.40;;
22826;SDS011;11580;52.562;13.418;2023-02-01T09:13:39;5.07;;;2.60;;
22826;SDS011;11580;52.562;13.418;2023-02-01T09:16:08;3.03;;;2.17;;
22826;SDS011;11580;52.562;13.418;2023-02-01T09:18:35;3.17;;;2.40;;
22826;SDS011;11580;52.562;13.418;2023-02-01T09:21:03;4.10;;;2.97;;
22826;SDS011;11580;52.562;13.418;2023-02-01T09:23:31;3.07;;;2.60;;
22826;SDS011;11580;52.562;13.418;2023-02-01T09:25:59;2.30;;;2.00;;
22826;SDS011;11580;52.562;13.418;2023-02-01T09:28:26;3.63;;;3.33;;
22826;SDS011;11580;52.562;13.418;2023-02-01T09:30:55;4.03;;;2.37;;
22826;SDS011;11580;52.562;13.418;2023-02-01T09:33:24;1.77;;;1.63;;
22826;SDS011;11580;52.562;13.418;2023-02-01T09:35:55;4.97;;;2.23;;
22826;SDS011;11580;52.562;13.418;2023-02-01T09:38:23;3.53;;;2.20;;
22826;SDS011;11580;52.562;13.418;2023-02-01T09:40:52;3.20;;;2.23;;
22826;SDS011;11580;52.562;13.418;2023-02-01T09:43:23;2.23;;;1.73;;
22826;SDS011;11580;52.562;13.418;2023-02-01T09:46:12;3.03;;;2.10;;
22826;SDS011;11580;52.562;13.418;2023-02-01T09:48:49;2.60;;;2.00;;
22826;SDS011;11580;52.562;13.418;2023-02-01T09:51:23;2.40;;;1.90;;
22826;SDS011;11580;52.562;13.418;2023-02-01T09:53:58;1.40;;;1.30;;
22826;SDS011;11580;52.562;13.418;2023-02-01T09:56:33;2.40;;;1.97;;
22826;SDS011;11580;52.562;13.418;2023-02-01T09:59:09;1.90;;;1.40;;
22826;SDS011;11580;52.562;13.418;2023-02-01T10:01:49;4.10;;;1.50;;
22826;SDS011;11580;52.562;13.418;2023-02-01T10:04:18;2.43;;;1.70;;
22826;SDS011;11580;52.562;13.418;2023-02-01T10:06:49;3.37;;;1.77;;
22826;SDS011;11580;52.562;13.418;2023-02-01T10:09:32;1.73;;;1.40;;
22826;SDS011;11580;52.562;13.418;2023-02-01T10:15:24;1.40;;;1.30;;
22826;SDS011;11580;52.562;13.418;2023-02-01T10:18:06;1.70;;;1.40;;
22826;SDS011;11580;52.562;13.418;2023-02-01T10:20:56;2.57;;;1.30;;
22826;SDS011;11580;52.562;13.418;2023-02-01T10:23:35;1.70;;;1.57;;
22826;SDS011;11580;52.562;13.418;2023-02-01T10:26:25;1.77;;;1.53;;
22826;SDS011;11580;52.562;13.418;2023-02-01T10:29:01;2.23;;;1.53;;
22826;SDS011;11580;52.562;13.418;2023-02-01T10:31:38;3.70;;;1.80;;
22826;SDS011;11580;52.562;13.418;2023-02-01T10:34:07;2.57;;;1.70;;
22826;SDS011;11580;52.562;13.418;2023-02-01T10:36:51;5.17;;;1.57;;
22826;SDS011;11580;52.562;13.418;2023-02-01T10:39:21;2.90;;;1.90;;
22826;SDS011;11580;52.562;13.418;2023-02-01T10:41:49;3.60;;;1.90;;
22826;SDS011;11580;52.562;13.418;2023-02-01T10:44:18;3.27;;;1.87;;
22826;SDS011;11580;52.562;13.418;2023-02-01T10:46:51;1.87;;;1.60;;
22826;SDS011;11580;52.562;13.418;2023-02-01T10:49:19;3.37;;;1.70;;
22826;SDS011;11580;52.562;13.418;2023-02-01T10:51:59;4.53;;;2.37;;
22826;SDS011;11580;52.562;13.418;2023-02-01T10:54:38;2.70;;;1.57;;
22826;SDS011;11580;52.562;13.418;2023-02-01T10:57:07;1.43;;;1.20;;
22826;SDS011;11580;52.562;13.418;2023-02-01T10:59:36;1.37;;;1.13;;
22826;SDS011;11580;52.562;13.418;2023-02-01T11:02:07;4.57;;;1.90;;
22826;SDS011;11580;52.562;13.418;2023-02-01T11:04:47;4.37;;;1.57;;
22826;SDS011;11580;52.562;13.418;2023-02-01T11:07:17;2.10;;;1.27;;
22826;SDS011;11580;52.562;13.418;2023-02-01T11:09:51;3.10;;;1.60;;
22826;SDS011;11580;52.562;13.418;2023-02-01T11:12:31;2.83;;;1.60;;
22826;SDS011;11580;52.562;13.418;2023-02-01T11:15:03;4.10;;;2.07;;
22826;SDS011;11580;52.562;13.418;2023-02-01T11:17:45;2.87;;;1.53;;
22826;SDS011;11580;52.562;13.418;2023-02-01T11:20:17;2.60;;;1.60;;
22826;SDS011;11580;52.562;13.418;2023-02-01T11:22:49;3.50;;;1.90;;
22826;SDS011;11580;52.562;13.418;2023-02-01T11:25:21;5.07;;;2.33;;
22826;SDS011;11580;52.562;13.418;2023-02-01T11:27:51;2.00;;;1.80;;
22826;SDS011;11580;52.562;13.418;2023-02-01T11:30:25;5.83;;;2.90;;
22826;SDS011;11580;52.562;13.418;2023-02-01T11:32:59;4.53;;;2.00;;
22826;SDS011;11580;52.562;13.418;2023-02-01T11:35:28;4.83;;;2.17;;
22826;SDS011;11580;52.562;13.418;2023-02-01T11:37:58;4.17;;;2.70;;
22826;SDS011;11580;52.562;13.418;2023-02-01T11:40:27;4.07;;;2.10;;
22826;SDS011;11580;52.562;13.418;2023-02-01T11:43:07;2.10;;;1.90;;
22826;SDS011;11580;52.562;13.418;2023-02-01T11:45:53;3.63;;;2.17;;
22826;SDS011;11580;52.562;13.418;2023-02-01T11:48:23;3.50;;;2.10;;
22826;SDS011;11580;52.562;13.418;2023-02-01T11:50:56;3.97;;;2.30;;
22826;SDS011;11580;52.562;13.418;2023-02-01T11:54:03;5.57;;;2.60;;
22826;SDS011;11580;52.562;13.418;2023-02-01T11:56:49;3.80;;;2.13;;
22826;SDS011;11580;52.562;13.418;2023-02-01T11:59:38;3.83;;;2.50;;
22826;SDS011;11580;52.562;13.418;2023-02-01T12:02:49;4.73;;;2.27;;
22826;SDS011;11580;52.562;13.418;2023-02-01T12:05:37;4.70;;;2.03;;
22826;SDS011;11580;52.562;13.418;2023-02-01T12:08:22;2.67;;;2.10;;
22826;SDS011;11580;52.562;13.418;2023-02-01T12:11:24;4.60;;;2.10;;
22826;SDS011;11580;52.562;13.418;2023-02-01T12:14:13;3.33;;;1.90;;
22826;SDS011;11580;52.562;13.418;2023-02-01T12:17:05;3.40;;;1.90;;
22826;SDS011;11580;52.562;13.418;2023-02-01T12:20:02;3.67;;;1.90;;
22826;SDS011;11580;52.562;13.418;2023-02-01T12:22:50;2.50;;;1.77;;
22826;SDS011;11580;52.562;13.418;2023-02-01T12:25:39;4.63;;;2.00;;
22826;SDS011;11580;52.562;13.418;2023-02-01T12:28:33;9.67;;;2.20;;
22826;SDS011;11580;52.562;13.418;2023-02-01T12:31:36;2.80;;;1.90;;
22826;SDS011;11580;52.562;13.418;2023-02-01T12:34:24;2.43;;;1.43;;
22826;SDS011;11580;52.562;13.418;2023-02-01T12:37:23;3.60;;;1.77;;
22826;SDS011;11580;52.562;13.418;2023-02-01T12:40:13;2.00;;;1.80;;
22826;SDS011;11580;52.562;13.418;2023-02-01T12:42:57;4.63;;;1.83;;
22826;SDS011;11580;52.562;13.418;2023-02-01T12:45:32;2.80;;;2.13;;
22826;SDS011;11580;52.562;13.418;2023-02-01T12:48:12;3.33;;;1.77;;
22826;SDS011;11580;52.562;13.418;2023-02-01T12:50:55;3.93;;;2.00;;
22826;SDS011;11580;52.562;13.418;2023-02-01T12:53:29;2.87;;;1.90;;
22826;SDS011;11580;52.562;13.418;2023-02-01T12:56:09;4.10;;;2.47;;
22826;SDS011;11580;52.562;13.418;2023-02-01T12:58:43;3.50;;;2.10;;
22826;SDS011;11580;52.562;13.418;2023-02-01T13:01:17;5.60;;;2.63;;
22826;SDS011;11580;52.562;13.418;2023-02-01T13:03:54;4.17;;;2.57;;
22826;SDS011;11580;52.562;13.418;2023-02-01T13:06:31;5.00;;;1.93;;
22826;SDS011;11580;52.562;13.418;2023-02-01T13:09:04;6.23;;;3.33;;
22826;SDS011;11580;52.562;13.418;2023-02-01T13:11:44;4.37;;;2.70;;
22826;SDS011;11580;52.562;13.418;2023-02-01T13:14:15;2.00;;;1.27;;
22826;SDS011;11580;52.562;13.418;2023-02-01T13:16:56;1.20;;;1.10;;
22826;SDS011;11580;52.562;13.418;2023-02-01T13:19:29;1.13;;;0.70;;
22826;SDS011;11580;52.562;13.418;2023-02-01T13:22:09;2.10;;;1.20;;
22826;SDS011;11580;52.562;13.418;2023-02-01T13:24:44;3.70;;;1.37;;
22826;SDS011;11580;52.562;13.418;2023-02-01T13:27:17;3.13;;;1.63;;
22826;SDS011;11580;52.562;13.418;2023-02-01T13:29:46;1.70;;;1.27;;
22826;SDS011;11580;52.562;13.418;2023-02-01T13:35:45;3.47;;;1.33;;
22826;SDS011;11580;52.562;13.418;2023-02-01T13:41:41;2.90;;;1.70;;
22826;SDS011;11580;52.562;13.418;2023-02-01T13:44:22;2.90;;;2.10;;
22826;SDS011;11580;52.562;13.418;2023-02-01T13:46:56;4.70;;;1.87;;
22826;SDS011;11580;52.562;13.418;2023-02-01T13:49:29;2.80;;;2.07;;
22826;SDS011;11580;52.562;13.418;2023-02-01T13:52:03;3.33;;;2.73;;
22826;SDS011;11580;52.562;13.418;2023-02-01T13:54:32;6.87;;;2.50;;
22826;SDS011;11580;52.562;13.418;2023-02-01T13:57:04;5.77;;;2.40;;
22826;SDS011;11580;52.562;13.418;2023-02-01T14:00:06;3.97;;;2.60;;
22826;SDS011;11580;52.562;13.418;2023-02-01T14:02:50;2.87;;;2.53;;
22826;SDS011;11580;52.562;13.418;2023-02-01T14:06:02;5.60;;;2.57;;
22826;SDS011;11580;52.562;13.418;2023-02-01T14:08:46;2.93;;;2.27;;
22826;SDS011;11580;52.562;13.418;2023-02-01T14:11:43;5.30;;;3.07;;
22826;SDS011;11580;52.562;13.418;2023-02-01T14:23:12;5.20;;;2.63;;
22826;SDS011;11580;52.562;13.418;2023-02-01T14:26:02;4.57;;;2.57;;
22826;SDS011;11580;52.562;13.418;2023-02-01T14:28:40;5.77;;;2.40;;
22826;SDS011;11580;52.562;13.418;2023-02-01T14:31:18;3.73;;;2.43;;
22826;SDS011;11580;52.562;13.418;2023-02-01T14:34:11;6.43;;;2.00;;
22826;SDS011;11580;52.562;13.418;2023-02-01T14:36:48;3.63;;;2.43;;
22826;SDS011;11580;52.562;13.418;2023-02-01T14:39:26;4.80;;;2.30;;
22826;SDS011;11580;52.562;13.418;2023-02-01T14:42:01;3.70;;;2.67;;
22826;SDS011;11580;52.562;13.418;2023-02-01T14:44:40;4.93;;;3.13;;
22826;SDS011;11580;52.562;13.418;2023-02-01T14:50:12;4.60;;;3.27;;
22826;SDS011;11580;52.562;13.418;2023-02-01T14:53:14;4.87;;;3.40;;
22826;SDS011;11580;52.562;13.418;2023-02-01T14:55:50;6.27;;;3.40;;
22826;SDS011;11580;52.562;13.418;2023-02-01T14:58:29;5.10;;;4.10;;
22826;SDS011;11580;52.562;13.418;2023-02-01T15:01:03;6.73;;;3.20;;
22826;SDS011;11580;52.562;13.418;2023-02-01T15:03:43;3.47;;;3.17;;
22826;SDS011;11580;52.562;13.418;2023-02-01T15:06:30;4.40;;;3.37;;
22826;SDS011;11580;52.562;13.418;2023-02-01T15:09:08;5.47;;;2.53;;
22826;SDS011;11580;52.562;13.418;2023-02-01T15:11:54;8.20;;;3.57;;
22826;SDS011;11580;52.562;13.418;2023-02-01T15:14:25;6.90;;;2.83;;
22826;SDS011;11580;52.562;13.418;2023-02-01T15:16:53;4.03;;;2.70;;
22826;SDS011;11580;52.562;13.418;2023-02-01T15:19:21;4.33;;;3.47;;
22826;SDS011;11580;52.562;13.418;2023-02-01T15:21:52;3.23;;;2.73;;
22826;SDS011;11580;52.562;13.418;2023-02-01T15:24:22;2.23;;;2.03;;
22826;SDS011;11580;52.562;13.418;2023-02-01T15:26:51;2.23;;;2.03;;
22826;SDS011;11580;52.562;13.418;2023-02-01T15:29:23;2.20;;;1.77;;
22826;SDS011;11580;52.562;13.418;2023-02-01T15:31:53;3.70;;;1.90;;
22826;SDS011;11580;52.562;13.418;2023-02-01T15:34:21;3.63;;;2.23;;
22826;SDS011;11580;52.562;13.418;2023-02-01T15:36:48;3.00;;;1.83;;